sensor_id;sensor_type;location;lat;lon;timestamp;pressure;altitude;pressure_sealevel;temperature;humidity
2188;BME280;1100;52.014;8.540;2022-07-17T00:01:21;101261.63;;;11.79;57.22
2188;BME280;1100;52.014;8.540;2022-07-17T00:03:46;101262.06;;;11.78;57.21
2188;BME280;1100;52.014;8.540;2022-07-17T00:06:13;101260.53;;;11.73;57.22
2188;BME280;1100;52.014;8.540;2022-07-17T00:08:38;101270.06;;;11.72;57.36
2188;BME280;1100;52.014;8.540;2022-07-17T00:11:03;101253.78;;;11.70;57.39
2188;BME280;1100;52.014;8.540;2022-07-17T00:13:29;101262.56;;;11.69;57.51
2188;BME280;1100;52.014;8.540;2022-07-17T00:15:54;101266.59;;;11.64;57.50
2188;BME280;1100;52.014;8.540;2022-07-17T00:18:20;101248.34;;;11.59;57.37
2188;BME280;1100;52.014;8.540;2022-07-17T00:20:45;101254.75;;;11.56;57.69
2188;BME280;1100;52.014;8.540;2022-07-17T00:23:11;101250.81;;;11.54;57.73
2188;BME280;1100;52.014;8.540;2022-07-17T00:25:36;101250.09;;;11.50;57.78
2188;BME280;1100;52.014;8.540;2022-07-17T00:28:02;101253.28;;;11.48;57.93
2188;BME280;1100;52.014;8.540;2022-07-17T00:30:28;101245.38;;;11.43;57.83
2188;BME280;1100;52.014;8.540;2022-07-17T00:32:53;101245.81;;;11.41;58.00
2188;BME280;1100;52.014;8.540;2022-07-17T00:35:18;101245.84;;;11.38;57.98
2188;BME280;1100;52.014;8.540;2022-07-17T00:37:46;101243.13;;;11.34;58.05
2188;BME280;1100;52.014;8.540;2022-07-17T00:40:16;101245.09;;;11.33;58.13
2188;BME280;1100;52.014;8.540;2022-07-17T00:42:42;101247.16;;;11.29;58.19
2188;BME280;1100;52.014;8.540;2022-07-17T00:45:08;101239.63;;;11.26;58.33
2188;BME280;1100;52.014;8.540;2022-07-17T00:47:48;101244.81;;;11.24;58.43
2188;BME280;1100;52.014;8.540;2022-07-17T00:50:15;101236.88;;;11.23;58.56
2188;BME280;1100;52.014;8.540;2022-07-17T00:52:40;101242.06;;;11.20;58.51
2188;BME280;1100;52.014;8.540;2022-07-17T00:55:07;101244.09;;;11.20;58.68
2188;BME280;1100;52.014;8.540;2022-07-17T00:57:34;101249.66;;;11.20;58.26
2188;BME280;1100;52.014;8.540;2022-07-17T01:00:02;101250.41;;;11.20;58.79
2188;BME280;1100;52.014;8.540;2022-07-17T01:02:32;101251.63;;;11.19;58.73
2188;BME280;1100;52.014;8.540;2022-07-17T01:04:57;101247.69;;;11.17;58.90
2188;BME280;1100;52.014;8.540;2022-07-17T01:07:23;101253.25;;;11.17;58.76
2188;BME280;1100;52.014;8.540;2022-07-17T01:09:49;101244.94;;;11.13;58.90
2188;BME280;1100;52.014;8.540;2022-07-17T01:12:14;101252.50;;;11.13;58.83
2188;BME280;1100;52.014;8.540;2022-07-17T01:14:40;101246.56;;;11.11;59.07
2188;BME280;1100;52.014;8.540;2022-07-17T01:17:06;101249.28;;;11.14;59.20
2188;BME280;1100;52.014;8.540;2022-07-17T01:19:31;101252.88;;;11.15;59.24
2188;BME280;1100;52.014;8.540;2022-07-17T01:21:56;101250.06;;;11.18;59.24
2188;BME280;1100;52.014;8.540;2022-07-17T01:24:22;101257.19;;;11.19;59.31
2188;BME280;1100;52.014;8.540;2022-07-17T01:26:48;101255.97;;;11.20;59.31
2188;BME280;1100;52.014;8.540;2022-07-17T01:29:15;101248.47;;;11.17;59.33
2188;BME280;1100;52.014;8.540;2022-07-17T01:31:41;101254.09;;;11.14;59.25
2188;BME280;1100;52.014;8.540;2022-07-17T01:34:08;101253.72;;;11.12;59.50
2188;BME280;1100;52.014;8.540;2022-07-17T01:36:34;101258.47;;;11.11;59.45
2188;BME280;1100;52.014;8.540;2022-07-17T01:39:00;101263.28;;;11.11;59.57
2188;BME280;1100;52.014;8.540;2022-07-17T01:41:26;101258.53;;;11.07;59.55
2188;BME280;1100;52.014;8.540;2022-07-17T01:43:51;101260.13;;;11.05;59.54
2188;BME280;1100;52.014;8.540;2022-07-17T01:46:16;101263.38;;;11.00;59.60
2188;BME280;1100;52.014;8.540;2022-07-17T01:48:42;101256.28;;;10.95;59.73
2188;BME280;1100;52.014;8.540;2022-07-17T01:51:07;101261.88;;;10.91;59.70
2188;BME280;1100;52.014;8.540;2022-07-17T01:53:33;101262.28;;;10.90;59.79
2188;BME280;1100;52.014;8.540;2022-07-17T01:55:58;101266.31;;;10.85;59.55
2188;BME280;1100;52.014;8.540;2022-07-17T01:58:23;101260.75;;;10.81;59.71
2188;BME280;1100;52.014;8.540;2022-07-17T02:00:49;101266.72;;;10.80;59.83
2188;BME280;1100;52.014;8.540;2022-07-17T02:03:16;101259.28;;;10.73;60.08
2188;BME280;1100;52.014;8.540;2022-07-17T02:05:41;101258.47;;;10.73;59.99
2188;BME280;1100;52.014;8.540;2022-07-17T02:08:07;101256.09;;;10.71;60.16
2188;BME280;1100;52.014;8.540;2022-07-17T02:10:32;101258.13;;;10.67;60.47
2188;BME280;1100;52.014;8.540;2022-07-17T02:12:57;101254.97;;;10.65;60.34
2188;BME280;1100;52.014;8.540;2022-07-17T02:15:23;101251.00;;;10.62;60.46
2188;BME280;1100;52.014;8.540;2022-07-17T02:17:49;101254.19;;;10.61;60.61
2188;BME280;1100;52.014;8.540;2022-07-17T02:20:14;101257.78;;;10.57;60.48
2188;BME280;1100;52.014;8.540;2022-07-17T02:22:40;101257.03;;;10.57;60.58
2188;BME280;1100;52.014;8.540;2022-07-17T02:25:07;101257.44;;;10.55;60.42
2188;BME280;1100;52.014;8.540;2022-07-17T02:27:33;101253.50;;;10.49;60.61
2188;BME280;1100;52.014;8.540;2022-07-17T02:30:04;101249.19;;;10.41;60.60
2188;BME280;1100;52.014;8.540;2022-07-17T02:32:30;101256.75;;;10.37;60.71
2188;BME280;1100;52.014;8.540;2022-07-17T02:34:55;101242.91;;;10.29;61.01
2188;BME280;1100;52.014;8.540;2022-07-17T02:37:20;101255.22;;;10.28;60.93
2188;BME280;1100;52.014;8.540;2022-07-17T02:39:46;101256.88;;;10.22;61.55
2188;BME280;1100;52.014;8.540;2022-07-17T02:42:21;101247.78;;;10.18;61.46
2188;BME280;1100;52.014;8.540;2022-07-17T02:44:47;101248.19;;;10.16;61.69
2188;BME280;1100;52.014;8.540;2022-07-17T02:47:19;101250.97;;;10.13;61.70
2188;BME280;1100;52.014;8.540;2022-07-17T02:49:45;101246.63;;;10.12;61.83
2188;BME280;1100;52.014;8.540;2022-07-17T02:52:11;101251.00;;;10.09;61.85
2188;BME280;1100;52.014;8.540;2022-07-17T02:54:36;101258.56;;;10.05;61.96
2188;BME280;1100;52.014;8.540;2022-07-17T02:57:02;101264.13;;;10.01;61.83
2188;BME280;1100;52.014;8.540;2022-07-17T02:59:27;101264.19;;;9.94;62.25
2188;BME280;1100;52.014;8.540;2022-07-17T03:01:52;101273.34;;;9.91;62.06
2188;BME280;1100;52.014;8.540;2022-07-17T03:04:18;101265.41;;;9.85;62.24
2188;BME280;1100;52.014;8.540;2022-07-17T03:06:43;101267.84;;;9.83;62.23
2188;BME280;1100;52.014;8.540;2022-07-17T03:09:08;101274.16;;;9.84;62.58
2188;BME280;1100;52.014;8.540;2022-07-17T03:11:34;101276.56;;;9.82;62.91
2188;BME280;1100;52.014;8.540;2022-07-17T03:13:59;101276.16;;;9.83;62.70
2188;BME280;1100;52.014;8.540;2022-07-17T03:16:24;101279.31;;;9.85;62.81
2188;BME280;1100;52.014;8.540;2022-07-17T03:18:50;101277.72;;;9.84;62.92
2188;BME280;1100;52.014;8.540;2022-07-17T03:21:15;101276.53;;;9.85;63.01
2188;BME280;1100;52.014;8.540;2022-07-17T03:23:40;101295.19;;;9.85;62.91
2188;BME280;1100;52.014;8.540;2022-07-17T03:26:05;101285.66;;;9.82;62.71
2188;BME280;1100;52.014;8.540;2022-07-17T03:28:31;101282.94;;;9.79;62.96
2188;BME280;1100;52.014;8.540;2022-07-17T03:30:56;101287.28;;;9.76;62.92
2188;BME280;1100;52.014;8.540;2022-07-17T03:33:21;101280.97;;;9.72;63.03
2188;BME280;1100;52.014;8.540;2022-07-17T03:35:47;101293.28;;;9.71;63.12
2188;BME280;1100;52.014;8.540;2022-07-17T03:38:12;101288.53;;;9.68;63.09
2188;BME280;1100;52.014;8.540;2022-07-17T03:40:37;101292.88;;;9.69;63.13
2188;BME280;1100;52.014;8.540;2022-07-17T03:43:03;101288.91;;;9.70;63.14
2188;BME280;1100;52.014;8.540;2022-07-17T03:45:28;101285.34;;;9.69;63.05
2188;BME280;1100;52.014;8.540;2022-07-17T03:47:53;101296.06;;;9.71;63.31
2188;BME280;1100;52.014;8.540;2022-07-17T03:50:19;101295.25;;;9.70;63.20
2188;BME280;1100;52.014;8.540;2022-07-17T03:52:44;101304.34;;;9.75;63.14
2188;BME280;1100;52.014;8.540;2022-07-17T03:55:09;101306.31;;;9.78;63.35
2188;BME280;1100;52.014;8.540;2022-07-17T03:57:35;101313.06;;;9.80;63.16
2188;BME280;1100;52.014;8.540;2022-07-17T04:00:00;101309.88;;;9.82;63.22
2188;BME280;1100;52.014;8.540;2022-07-17T04:02:26;101311.84;;;9.85;63.23
2188;BME280;1100;52.014;8.540;2022-07-17T04:04:51;101310.25;;;9.84;63.39
2188;BME280;1100;52.014;8.540;2022-07-17T04:07:17;101315.81;;;9.84;63.39
2188;BME280;1100;52.014;8.540;2022-07-17T04:09:57;101315.03;;;9.83;63.41
2188;BME280;1100;52.014;8.540;2022-07-17T04:12:23;101322.16;;;9.84;63.67
2188;BME280;1100;52.014;8.540;2022-07-17T04:14:48;101313.44;;;9.82;63.49
2188;BME280;1100;52.014;8.540;2022-07-17T04:17:14;101306.31;;;9.81;63.46
2188;BME280;1100;52.014;8.540;2022-07-17T04:19:40;101298.38;;;9.80;63.70
2188;BME280;1100;52.014;8.540;2022-07-17T04:22:05;101294.41;;;9.81;63.73
2188;BME280;1100;52.014;8.540;2022-07-17T04:24:30;101284.91;;;9.78;63.72
2188;BME280;1100;52.014;8.540;2022-07-17T04:26:56;101273.78;;;9.78;63.78
2188;BME280;1100;52.014;8.540;2022-07-17T04:29:21;101268.66;;;9.77;63.93
2188;BME280;1100;52.014;8.540;2022-07-17T04:31:46;101265.06;;;9.76;63.98
2188;BME280;1100;52.014;8.540;2022-07-17T04:34:12;101273.78;;;9.78;64.13
2188;BME280;1100;52.014;8.540;2022-07-17T04:36:37;101250.78;;;9.78;63.94
2188;BME280;1100;52.014;8.540;2022-07-17T04:39:02;101258.31;;;9.81;64.06
2188;BME280;1100;52.014;8.540;2022-07-17T04:41:28;101269.00;;;9.82;64.39
2188;BME280;1100;52.014;8.540;2022-07-17T04:43:53;101275.72;;;9.89;64.40
2188;BME280;1100;52.014;8.540;2022-07-17T04:46:19;101298.31;;;9.94;64.36
2188;BME280;1100;52.014;8.540;2022-07-17T04:48:44;101323.69;;;10.00;64.41
2188;BME280;1100;52.014;8.540;2022-07-17T04:51:10;101340.69;;;10.09;64.55
2188;BME280;1100;52.014;8.540;2022-07-17T04:53:36;101339.84;;;10.20;64.43
2188;BME280;1100;52.014;8.540;2022-07-17T04:56:02;101339.34;;;10.36;64.58
2188;BME280;1100;52.014;8.540;2022-07-17T04:58:28;101336.09;;;10.49;64.59
2188;BME280;1100;52.014;8.540;2022-07-17T05:00:53;101334.47;;;10.58;64.27
2188;BME280;1100;52.014;8.540;2022-07-17T05:03:18;101316.53;;;10.67;64.40
2188;BME280;1100;52.014;8.540;2022-07-17T05:05:44;101315.63;;;10.77;64.32
2188;BME280;1100;52.014;8.540;2022-07-17T05:08:09;101329.84;;;10.90;64.64
2188;BME280;1100;52.014;8.540;2022-07-17T05:10:35;101338.03;;;11.05;64.41
2188;BME280;1100;52.014;8.540;2022-07-17T05:13:00;101324.44;;;11.14;64.26
2188;BME280;1100;52.014;8.540;2022-07-17T05:15:26;101333.47;;;11.26;64.13
2188;BME280;1100;52.014;8.540;2022-07-17T05:17:51;101333.34;;;11.37;64.25
2188;BME280;1100;52.014;8.540;2022-07-17T05:20:16;101331.25;;;11.48;64.36
2188;BME280;1100;52.014;8.540;2022-07-17T05:22:42;101328.75;;;11.57;64.12
2188;BME280;1100;52.014;8.540;2022-07-17T05:25:08;101337.00;;;11.65;63.99
2188;BME280;1100;52.014;8.540;2022-07-17T05:27:33;101329.03;;;11.67;63.85
2188;BME280;1100;52.014;8.540;2022-07-17T05:29:58;101323.00;;;11.72;63.84
2188;BME280;1100;52.014;8.540;2022-07-17T05:32:24;101312.53;;;11.80;64.01
2188;BME280;1100;52.014;8.540;2022-07-17T05:34:49;101304.03;;;11.91;63.79
2188;BME280;1100;52.014;8.540;2022-07-17T05:37:14;101294.75;;;12.01;64.07
2188;BME280;1100;52.014;8.540;2022-07-17T05:39:40;101298.16;;;12.16;64.71
2188;BME280;1100;52.014;8.540;2022-07-17T05:42:05;101305.50;;;12.30;64.42
2188;BME280;1100;52.014;8.540;2022-07-17T05:44:31;101304.16;;;12.42;64.15
2188;BME280;1100;52.014;8.540;2022-07-17T05:46:56;101299.13;;;12.57;64.22
2188;BME280;1100;52.014;8.540;2022-07-17T05:49:21;101301.25;;;12.74;64.13
2188;BME280;1100;52.014;8.540;2022-07-17T05:51:47;101299.91;;;12.82;63.75
2188;BME280;1100;52.014;8.540;2022-07-17T05:54:12;101297.34;;;12.91;63.65
2188;BME280;1100;52.014;8.540;2022-07-17T05:56:37;101304.66;;;13.05;63.54
2188;BME280;1100;52.014;8.540;2022-07-17T05:59:03;101308.00;;;13.20;63.50
2188;BME280;1100;52.014;8.540;2022-07-17T06:01:28;101314.50;;;13.34;64.02
2188;BME280;1100;52.014;8.540;2022-07-17T06:03:54;101315.09;;;13.45;63.31
2188;BME280;1100;52.014;8.540;2022-07-17T06:06:19;101321.28;;;13.57;63.15
2188;BME280;1100;52.014;8.540;2022-07-17T06:08:46;101318.97;;;13.72;63.29
2188;BME280;1100;52.014;8.540;2022-07-17T06:11:11;101322.69;;;13.86;63.05
2188;BME280;1100;52.014;8.540;2022-07-17T06:13:37;101325.59;;;13.99;62.86
2188;BME280;1100;52.014;8.540;2022-07-17T06:16:03;101324.94;;;14.11;62.75
2188;BME280;1100;52.014;8.540;2022-07-17T06:18:28;101321.09;;;14.22;62.72
2188;BME280;1100;52.014;8.540;2022-07-17T06:20:54;101323.56;;;14.36;62.45
2188;BME280;1100;52.014;8.540;2022-07-17T06:23:19;101311.75;;;14.45;62.50
2188;BME280;1100;52.014;8.540;2022-07-17T06:25:44;101316.22;;;14.59;62.31
2188;BME280;1100;52.014;8.540;2022-07-17T06:28:10;101325.41;;;14.76;62.33
2188;BME280;1100;52.014;8.540;2022-07-17T06:30:35;101319.22;;;14.85;62.02
2188;BME280;1100;52.014;8.540;2022-07-17T06:33:00;101317.09;;;14.89;61.85
2188;BME280;1100;52.014;8.540;2022-07-17T06:35:26;101304.06;;;14.99;61.86
2188;BME280;1100;52.014;8.540;2022-07-17T06:37:51;101322.41;;;15.00;61.57
2188;BME280;1100;52.014;8.540;2022-07-17T06:40:16;101329.00;;;14.93;61.45
2188;BME280;1100;52.014;8.540;2022-07-17T06:42:42;101330.34;;;14.89;61.42
2188;BME280;1100;52.014;8.540;2022-07-17T06:45:08;101325.41;;;14.93;61.46
2188;BME280;1100;52.014;8.540;2022-07-17T06:47:33;101316.28;;;15.05;61.48
2188;BME280;1100;52.014;8.540;2022-07-17T06:49:59;101327.56;;;15.18;61.20
2188;BME280;1100;52.014;8.540;2022-07-17T06:52:24;101323.47;;;15.36;61.20
2188;BME280;1100;52.014;8.540;2022-07-17T06:54:49;101323.41;;;15.53;60.97
2188;BME280;1100;52.014;8.540;2022-07-17T06:57:15;101322.66;;;15.65;60.59
2188;BME280;1100;52.014;8.540;2022-07-17T06:59:40;101312.66;;;15.64;60.70
2188;BME280;1100;52.014;8.540;2022-07-17T07:02:06;101316.81;;;15.60;60.38
2188;BME280;1100;52.014;8.540;2022-07-17T07:04:31;101313.56;;;15.61;60.23
2188;BME280;1100;52.014;8.540;2022-07-17T07:06:57;101311.22;;;15.73;60.49
2188;BME280;1100;52.014;8.540;2022-07-17T07:09:22;101310.38;;;15.89;60.68
2188;BME280;1100;52.014;8.540;2022-07-17T07:11:48;101311.09;;;16.06;60.16
2188;BME280;1100;52.014;8.540;2022-07-17T07:14:13;101312.00;;;16.16;59.71
2188;BME280;1100;52.014;8.540;2022-07-17T07:16:39;101312.09;;;16.25;59.88
2188;BME280;1100;52.014;8.540;2022-07-17T07:19:04;101302.19;;;16.34;59.66
2188;BME280;1100;52.014;8.540;2022-07-17T07:21:29;101301.41;;;16.46;59.62
2188;BME280;1100;52.014;8.540;2022-07-17T07:23:55;101302.63;;;16.58;59.21
2188;BME280;1100;52.014;8.540;2022-07-17T07:26:21;101299.69;;;16.62;58.86
2188;BME280;1100;52.014;8.540;2022-07-17T07:28:47;101308.78;;;16.66;59.04
2188;BME280;1100;52.014;8.540;2022-07-17T07:31:12;101304.13;;;16.85;59.17
2188;BME280;1100;52.014;8.540;2022-07-17T07:33:38;101306.88;;;16.98;58.62
2188;BME280;1100;52.014;8.540;2022-07-17T07:36:04;101309.69;;;17.11;58.82
2188;BME280;1100;52.014;8.540;2022-07-17T07:38:29;101307.06;;;17.17;58.49
2188;BME280;1100;52.014;8.540;2022-07-17T07:40:55;101314.31;;;17.27;58.14
2188;BME280;1100;52.014;8.540;2022-07-17T07:43:20;101323.81;;;17.43;58.40
2188;BME280;1100;52.014;8.540;2022-07-17T07:45:46;101321.38;;;17.54;57.81
2188;BME280;1100;52.014;8.540;2022-07-17T07:48:11;101320.78;;;17.60;57.82
2188;BME280;1100;52.014;8.540;2022-07-17T07:50:37;101312.53;;;17.65;56.88
2188;BME280;1100;52.014;8.540;2022-07-17T07:53:02;101323.47;;;17.63;56.80
2188;BME280;1100;52.014;8.540;2022-07-17T07:55:28;101323.06;;;17.74;56.56
2188;BME280;1100;52.014;8.540;2022-07-17T07:58:08;101335.06;;;17.97;56.34
2188;BME280;1100;52.014;8.540;2022-07-17T08:00:34;101348.00;;;18.26;56.11
2188;BME280;1100;52.014;8.540;2022-07-17T08:03:01;101335.41;;;18.50;55.49
2188;BME280;1100;52.014;8.540;2022-07-17T08:05:26;101332.22;;;18.70;55.26
2188;BME280;1100;52.014;8.540;2022-07-17T08:07:51;101328.78;;;18.94;55.33
2188;BME280;1100;52.014;8.540;2022-07-17T08:10:17;101325.69;;;19.11;54.44
2188;BME280;1100;52.014;8.540;2022-07-17T08:12:42;101318.16;;;19.26;54.51
2188;BME280;1100;52.014;8.540;2022-07-17T08:15:08;101327.66;;;19.57;54.39
2188;BME280;1100;52.014;8.540;2022-07-17T08:17:33;101327.16;;;19.77;52.85
2188;BME280;1100;52.014;8.540;2022-07-17T08:19:59;101329.81;;;19.81;53.19
2188;BME280;1100;52.014;8.540;2022-07-17T08:22:24;101319.09;;;20.04;53.20
2188;BME280;1100;52.014;8.540;2022-07-17T08:24:49;101320.28;;;20.22;52.77
2188;BME280;1100;52.014;8.540;2022-07-17T08:27:15;101324.75;;;20.38;52.25
2188;BME280;1100;52.014;8.540;2022-07-17T08:29:40;101338.50;;;20.45;51.80
2188;BME280;1100;52.014;8.540;2022-07-17T08:32:05;101336.16;;;20.44;51.40
2188;BME280;1100;52.014;8.540;2022-07-17T08:34:31;101340.81;;;20.56;51.81
2188;BME280;1100;52.014;8.540;2022-07-17T08:36:56;101344.56;;;20.77;51.51
2188;BME280;1100;52.014;8.540;2022-07-17T08:39:22;101346.34;;;20.99;51.21
2188;BME280;1100;52.014;8.540;2022-07-17T08:41:47;101350.06;;;21.06;50.26
2188;BME280;1100;52.014;8.540;2022-07-17T08:44:12;101341.28;;;21.43;50.11
2188;BME280;1100;52.014;8.540;2022-07-17T08:46:39;101352.97;;;21.66;49.85
2188;BME280;1100;52.014;8.540;2022-07-17T08:49:05;101355.13;;;21.71;49.28
2188;BME280;1100;52.014;8.540;2022-07-17T08:51:32;101358.56;;;21.60;48.79
2188;BME280;1100;52.014;8.540;2022-07-17T08:53:58;101353.84;;;21.42;48.68
2188;BME280;1100;52.014;8.540;2022-07-17T08:56:24;101355.56;;;21.24;48.40
2188;BME280;1100;52.014;8.540;2022-07-17T08:58:50;101356.53;;;21.21;47.56
2188;BME280;1100;52.014;8.540;2022-07-17T09:01:17;101358.28;;;21.19;48.38
2188;BME280;1100;52.014;8.540;2022-07-17T09:03:55;101363.44;;;21.20;47.57
2188;BME280;1100;52.014;8.540;2022-07-17T09:06:22;101354.66;;;21.18;48.37
2188;BME280;1100;52.014;8.540;2022-07-17T09:08:48;101358.69;;;21.26;46.76
2188;BME280;1100;52.014;8.540;2022-07-17T09:11:13;101352.22;;;21.11;46.90
2188;BME280;1100;52.014;8.540;2022-07-17T09:13:44;101363.63;;;21.16;47.87
2188;BME280;1100;52.014;8.540;2022-07-17T09:16:11;101347.59;;;21.38;46.94
2188;BME280;1100;52.014;8.540;2022-07-17T09:18:47;101352.19;;;21.50;46.79
2188;BME280;1100;52.014;8.540;2022-07-17T09:21:22;101359.31;;;21.61;47.10
2188;BME280;1100;52.014;8.540;2022-07-17T09:24:17;101353.50;;;21.95;46.39
2188;BME280;1100;52.014;8.540;2022-07-17T09:26:44;101355.03;;;21.96;44.74
2188;BME280;1100;52.014;8.540;2022-07-17T09:29:10;101350.84;;;21.91;45.85
2188;BME280;1100;52.014;8.540;2022-07-17T09:31:37;101353.75;;;22.12;44.74
2188;BME280;1100;52.014;8.540;2022-07-17T09:34:03;101352.84;;;22.21;45.63
2188;BME280;1100;52.014;8.540;2022-07-17T09:36:29;101358.88;;;22.28;44.69
2188;BME280;1100;52.014;8.540;2022-07-17T09:38:56;101353.53;;;22.31;44.31
2188;BME280;1100;52.014;8.540;2022-07-17T09:41:24;101357.41;;;22.33;44.30
2188;BME280;1100;52.014;8.540;2022-07-17T09:43:54;101350.50;;;22.55;43.73
2188;BME280;1100;52.014;8.540;2022-07-17T09:46:28;101351.34;;;22.76;44.08
2188;BME280;1100;52.014;8.540;2022-07-17T09:48:59;101350.47;;;22.91;43.67
2188;BME280;1100;52.014;8.540;2022-07-17T09:51:29;101356.84;;;23.07;43.43
2188;BME280;1100;52.014;8.540;2022-07-17T09:53:58;101345.59;;;23.12;42.82
2188;BME280;1100;52.014;8.540;2022-07-17T09:56:26;101347.75;;;23.23;42.38
2188;BME280;1100;52.014;8.540;2022-07-17T09:58:54;101354.84;;;23.13;40.07
2188;BME280;1100;52.014;8.540;2022-07-17T10:01:22;101338.28;;;22.85;39.78
2188;BME280;1100;52.014;8.540;2022-07-17T10:03:47;101342.50;;;22.69;40.18
2188;BME280;1100;52.014;8.540;2022-07-17T10:06:15;101339.22;;;22.76;40.60
2188;BME280;1100;52.014;8.540;2022-07-17T10:08:40;101345.03;;;22.87;39.99
2188;BME280;1100;52.014;8.540;2022-07-17T10:11:10;101339.22;;;22.97;40.37
2188;BME280;1100;52.014;8.540;2022-07-17T10:13:39;101342.13;;;23.02;40.40
2188;BME280;1100;52.014;8.540;2022-07-17T10:16:06;101341.00;;;23.21;40.63
2188;BME280;1100;52.014;8.540;2022-07-17T10:18:41;101337.22;;;23.50;41.21
2188;BME280;1100;52.014;8.540;2022-07-17T10:21:11;101343.88;;;23.74;39.87
2188;BME280;1100;52.014;8.540;2022-07-17T10:23:37;101343.38;;;23.75;39.84
2188;BME280;1100;52.014;8.540;2022-07-17T10:26:03;101348.78;;;23.73;39.60
2188;BME280;1100;52.014;8.540;2022-07-17T10:28:43;101348.13;;;23.58;39.55
2188;BME280;1100;52.014;8.540;2022-07-17T10:31:09;101345.75;;;23.30;39.55
2188;BME280;1100;52.014;8.540;2022-07-17T10:33:35;101342.66;;;23.07;40.18
2188;BME280;1100;52.014;8.540;2022-07-17T10:36:00;101344.09;;;22.96;39.81
2188;BME280;1100;52.014;8.540;2022-07-17T10:38:26;101343.53;;;22.71;40.33
2188;BME280;1100;52.014;8.540;2022-07-17T10:41:02;101345.28;;;23.10;40.28
2188;BME280;1100;52.014;8.540;2022-07-17T10:43:41;101343.34;;;23.43;39.75
2188;BME280;1100;52.014;8.540;2022-07-17T10:46:07;101346.22;;;23.49;39.07
2188;BME280;1100;52.014;8.540;2022-07-17T10:48:32;101345.63;;;23.66;39.63
2188;BME280;1100;52.014;8.540;2022-07-17T10:50:57;101354.00;;;23.81;39.63
2188;BME280;1100;52.014;8.540;2022-07-17T10:55:59;101353.53;;;23.88;39.35
2188;BME280;1100;52.014;8.540;2022-07-17T10:58:31;101346.81;;;23.85;37.87
2188;BME280;1100;52.014;8.540;2022-07-17T11:03:26;101339.97;;;23.39;39.25
2188;BME280;1100;52.014;8.540;2022-07-17T11:05:51;101351.34;;;23.45;39.16
2188;BME280;1100;52.014;8.540;2022-07-17T11:08:17;101349.84;;;23.49;39.11
2188;BME280;1100;52.014;8.540;2022-07-17T11:10:42;101360.38;;;23.43;38.63
2188;BME280;1100;52.014;8.540;2022-07-17T11:13:10;101354.94;;;23.19;38.78
2188;BME280;1100;52.014;8.540;2022-07-17T11:15:48;101352.97;;;23.31;39.20
2188;BME280;1100;52.014;8.540;2022-07-17T11:18:18;101346.09;;;23.37;38.94
2188;BME280;1100;52.014;8.540;2022-07-17T11:21:00;101340.00;;;23.24;39.16
2188;BME280;1100;52.014;8.540;2022-07-17T11:23:31;101336.75;;;23.31;38.52
2188;BME280;1100;52.014;8.540;2022-07-17T11:26:06;101335.84;;;23.40;38.43
2188;BME280;1100;52.014;8.540;2022-07-17T11:28:39;101337.19;;;23.77;39.27
2188;BME280;1100;52.014;8.540;2022-07-17T11:31:26;101331.38;;;23.92;38.64
2188;BME280;1100;52.014;8.540;2022-07-17T11:34:06;101337.53;;;24.17;38.49
2188;BME280;1100;52.014;8.540;2022-07-17T11:36:35;101333.25;;;24.39;38.02
2188;BME280;1100;52.014;8.540;2022-07-17T11:39:07;101331.03;;;24.60;37.96
2188;BME280;1100;52.014;8.540;2022-07-17T11:41:41;101335.19;;;24.65;37.59
2188;BME280;1100;52.014;8.540;2022-07-17T11:44:12;101326.63;;;24.54;37.01
2188;BME280;1100;52.014;8.540;2022-07-17T11:46:40;101329.69;;;24.44;37.70
2188;BME280;1100;52.014;8.540;2022-07-17T11:49:06;101327.66;;;24.50;37.83
2188;BME280;1100;52.014;8.540;2022-07-17T11:51:43;101328.44;;;24.57;37.16
2188;BME280;1100;52.014;8.540;2022-07-17T11:54:11;101328.97;;;24.55;38.21
2188;BME280;1100;52.014;8.540;2022-07-17T11:56:38;101325.91;;;24.64;37.96
2188;BME280;1100;52.014;8.540;2022-07-17T11:59:04;101320.78;;;24.80;37.61
2188;BME280;1100;52.014;8.540;2022-07-17T12:01:44;101330.31;;;24.71;37.38
2188;BME280;1100;52.014;8.540;2022-07-17T12:04:12;101317.38;;;24.70;37.56
2188;BME280;1100;52.014;8.540;2022-07-17T12:06:38;101323.03;;;24.59;36.36
2188;BME280;1100;52.014;8.540;2022-07-17T12:09:05;101315.19;;;24.42;37.26
2188;BME280;1100;52.014;8.540;2022-07-17T12:11:30;101318.84;;;24.48;37.20
2188;BME280;1100;52.014;8.540;2022-07-17T12:14:03;101324.53;;;24.48;36.06
2188;BME280;1100;52.014;8.540;2022-07-17T12:16:31;101320.38;;;24.44;35.72
2188;BME280;1100;52.014;8.540;2022-07-17T12:19:11;101323.53;;;24.57;35.64
2188;BME280;1100;52.014;8.540;2022-07-17T12:21:52;101327.84;;;24.41;34.92
2188;BME280;1100;52.014;8.540;2022-07-17T12:24:27;101318.06;;;24.48;36.21
2188;BME280;1100;52.014;8.540;2022-07-17T12:26:54;101316.28;;;24.50;36.36
2188;BME280;1100;52.014;8.540;2022-07-17T12:29:21;101309.81;;;24.50;36.90
2188;BME280;1100;52.014;8.540;2022-07-17T12:31:46;101310.25;;;24.37;36.53
2188;BME280;1100;52.014;8.540;2022-07-17T12:34:11;101304.13;;;24.06;35.63
2188;BME280;1100;52.014;8.540;2022-07-17T12:36:37;101300.84;;;23.81;35.37
2188;BME280;1100;52.014;8.540;2022-07-17T12:39:03;101300.16;;;23.60;35.87
2188;BME280;1100;52.014;8.540;2022-07-17T12:41:28;101301.78;;;23.40;36.51
2188;BME280;1100;52.014;8.540;2022-07-17T12:43:53;101291.38;;;23.31;35.66
2188;BME280;1100;52.014;8.540;2022-07-17T12:46:19;101301.81;;;23.19;35.33
2188;BME280;1100;52.014;8.540;2022-07-17T12:48:44;101286.63;;;22.96;35.61
2188;BME280;1100;52.014;8.540;2022-07-17T12:51:11;101289.34;;;22.84;36.57
2188;BME280;1100;52.014;8.540;2022-07-17T12:53:43;101290.56;;;22.77;35.99
2188;BME280;1100;52.014;8.540;2022-07-17T12:56:09;101285.94;;;22.80;36.21
2188;BME280;1100;52.014;8.540;2022-07-17T12:58:36;101286.44;;;22.78;35.83
2188;BME280;1100;52.014;8.540;2022-07-17T13:01:01;101281.75;;;22.75;36.22
2188;BME280;1100;52.014;8.540;2022-07-17T13:03:27;101280.59;;;22.88;35.94
2188;BME280;1100;52.014;8.540;2022-07-17T13:05:52;101285.13;;;23.00;34.72
2188;BME280;1100;52.014;8.540;2022-07-17T13:08:18;101281.56;;;23.06;35.46
2188;BME280;1100;52.014;8.540;2022-07-17T13:10:43;101271.88;;;23.12;35.43
2188;BME280;1100;52.014;8.540;2022-07-17T13:13:09;101269.69;;;23.28;35.64
2188;BME280;1100;52.014;8.540;2022-07-17T13:15:34;101267.19;;;23.36;35.89